Hicks Airfield Weather

No METAR data is available for Hicks Airfield, and nearby Alliance Airport's METAR data is commonly used by area pilots. Weather infomation is also available on 126.925 mhz.

  • Current KAFW METAR
    (5.8nm NE) VFR
    Raw Text: KAFW 260853Z 00000KT 8SM CLR 08/01 A3002 RMK AO2 SLP163 T00780011 56010
    Wind: 0° @ 0kts
    Visibility: 8.0sm
    Clouds (AGL): CLR
    Temperature: 7.8°C
    Dew Point: 1.1°C
    Altimeter: 30.02 inHg
  • Current KAFW TAF
    (5.8nm NE)
    Raw Text: KAFW 260855Z 2609/2706 17004KT P6SM SKC FM261600 17012KT P6SM FEW250